Time;durP1;ratioP1;P1;durP2;ratioP2;P2;SDS_P1;SDS_P2;PMS_P1;PMS_P2;Temp;Humidity;BMP_temperature;BMP_pressure;BME280_temperature;BME280_humidity;BME280_pressure;Samples;Min_cycle;Max_cycle;Signal;HPM_P1;HPM_P2
2022/04/01 00:01:18;;;;;;;13.10;7.70;;;;;;;3.86;71.15;98967.56;5027749;28;20207;-42
2022/04/01 00:03:44;;;;;;;11.43;7.43;;;;;;;3.76;71.05;98954.06;5032441;28;20076;-43
2022/04/01 00:06:10;;;;;;;13.65;7.07;;;;;;;3.87;71.22;98968.44;5031751;28;20045;-42
2022/04/01 00:08:36;;;;;;;11.50;7.43;;;;;;;3.86;71.05;98959.88;5032578;28;20033;-43
2022/04/01 00:11:02;;;;;;;14.23;7.65;;;;;;;3.86;70.48;98957.28;5033656;28;20454;-44
2022/04/01 00:13:27;;;;;;;11.27;7.22;;;;;;;3.89;70.43;98969.22;5021131;28;20120;-41
2022/04/01 00:15:53;;;;;;;12.88;8.23;;;;;;;3.90;70.49;98970.94;5033037;28;20536;-43
2022/04/01 00:18:19;;;;;;;13.55;8.20;;;;;;;3.88;70.42;98960.66;5033718;28;20476;-43
2022/04/01 00:20:45;;;;;;;11.02;7.40;;;;;;;3.96;70.64;98981.09;5049048;28;20096;-43
2022/04/01 00:23:12;;;;;;;12.85;7.97;;;;;;;3.97;70.30;98975.94;5032559;28;20480;-42
2022/04/01 00:25:39;;;;;;;12.07;7.78;;;;;;;3.99;70.66;98974.16;5038488;28;20045;-42
2022/04/01 00:28:05;;;;;;;11.07;7.63;;;;;;;4.03;70.48;98986.06;5021732;28;20034;-42
2022/04/01 00:30:33;;;;;;;14.23;7.18;;;;;;;4.03;70.01;98980.94;5014167;28;20050;-43
2022/04/01 00:32:59;;;;;;;13.40;8.23;;;;;;;3.94;70.22;98972.56;5029505;28;20041;-42
2022/04/01 00:35:26;;;;;;;13.15;8.00;;;;;;;4.03;70.49;98975.78;5033035;28;20444;-47
2022/04/01 00:37:52;;;;;;;12.77;7.80;;;;;;;3.90;70.45;98965.78;5033295;28;20063;-42
2022/04/01 00:40:18;;;;;;;14.00;7.60;;;;;;;4.02;70.10;98968.97;5011303;28;20091;-42
2022/04/01 00:42:45;;;;;;;13.45;7.25;;;;;;;4.03;70.10;98980.94;5026803;28;20069;-44
2022/04/01 00:45:11;;;;;;;12.40;7.82;;;;;;;3.93;69.83;98966.56;5043437;28;20069;-42
2022/04/01 00:47:38;;;;;;;11.18;7.07;;;;;;;4.00;70.21;98985.31;5030855;28;20517;-42
2022/04/01 00:50:05;;;;;;;10.38;7.43;;;;;;;3.81;69.83;98953.97;5030745;28;20098;-43
2022/04/01 00:52:31;;;;;;;11.70;7.90;;;;;;;3.99;70.21;98984.44;5024901;28;20787;-42
2022/04/01 00:54:57;;;;;;;11.02;7.25;;;;;;;3.97;69.94;98990.50;5030724;28;20045;-45
2022/04/01 00:57:25;;;;;;;10.85;7.13;;;;;;;3.94;70.20;98985.41;5029378;28;20037;-44
2022/04/01 00:59:52;;;;;;;11.35;7.25;;;;;;;3.96;69.91;98996.53;5030506;28;20041;-42
2022/04/01 01:02:18;;;;;;;10.88;6.95;;;;;;;3.92;70.16;98998.31;5045027;28;20048;-43
2022/04/01 01:04:45;;;;;;;11.80;7.60;;;;;;;3.94;70.29;98995.69;5024957;28;20037;-43
2022/04/01 01:07:15;;;;;;;10.45;6.47;;;;;;;3.94;70.38;98998.28;5032345;28;20041;-45
2022/04/01 01:09:44;;;;;;;9.55;6.82;;;;;;;3.90;70.13;98989.78;5030826;28;20038;-42
2022/04/01 01:12:11;;;;;;;10.15;6.65;;;;;;;3.96;70.10;98992.22;5015089;28;20048;-43
2022/04/01 01:14:38;;;;;;;9.38;6.40;;;;;;;3.94;70.13;98998.28;5032751;28;20041;-41
2022/04/01 01:17:12;;;;;;;10.88;6.63;;;;;;;3.84;70.16;98987.31;5031885;28;20037;-43
2022/04/01 01:19:39;;;;;;;10.52;6.88;;;;;;;3.91;70.28;98998.34;5030786;28;20041;-43
2022/04/01 01:22:06;;;;;;;8.43;6.45;;;;;;;3.93;70.37;98996.56;5032194;28;20575;-42
2022/04/01 01:24:35;;;;;;;11.57;6.65;;;;;;;3.94;70.44;98993.97;5031312;28;20091;-42
2022/04/01 01:27:02;;;;;;;9.77;6.00;;;;;;;3.96;70.57;98989.66;5030635;28;20068;-46
2022/04/01 01:29:31;;;;;;;7.45;5.28;;;;;;;3.87;70.30;98978.72;5031202;28;20037;-43
2022/04/01 01:32:02;;;;;;;7.93;5.88;;;;;;;3.96;70.40;98997.38;5031350;28;20052;-44
2022/04/01 01:34:32;;;;;;;8.60;5.97;;;;;;;3.96;70.32;98988.81;5064622;28;20517;-43
2022/04/01 01:37:00;;;;;;;8.38;5.85;;;;;;;3.94;70.19;98993.97;5032187;28;20132;-43
2022/04/01 01:39:26;;;;;;;9.20;6.45;;;;;;;3.94;70.33;98998.28;5030324;28;20038;-44
2022/04/01 01:41:53;;;;;;;10.02;6.70;;;;;;;3.95;70.33;98998.25;5015397;28;20540;-43
2022/04/01 01:44:21;;;;;;;12.13;8.18;;;;;;;3.82;70.54;98982.19;5058908;28;20052;-42
2022/04/01 01:46:47;;;;;;;33.13;23.58;;;;;;;3.93;70.58;99005.13;5018108;28;20073;-42
2022/04/01 01:49:13;;;;;;;18.00;12.65;;;;;;;3.95;70.71;99005.97;5029008;28;20038;-43
2022/04/01 01:54:52;;;;;;;11.85;7.30;;;;;;;3.93;70.46;99015.41;5038498;28;20040;-43
2022/04/01 01:57:21;;;;;;;10.27;6.45;;;;;;;3.92;70.85;99020.63;5015529;28;20421;-42
2022/04/01 01:59:47;;;;;;;10.02;5.80;;;;;;;3.81;70.48;98997.66;5041326;28;20038;-42
2022/04/01 02:02:13;;;;;;;11.20;6.22;;;;;;;3.92;70.01;99021.47;5043407;28;20041;-43
2022/04/01 02:04:40;;;;;;;8.98;6.22;;;;;;;3.90;70.55;99014.63;5016417;28;20044;-44
2022/04/01 02:07:07;;;;;;;10.07;6.18;;;;;;;3.94;70.59;99016.25;5029883;28;20103;-43
2022/04/01 02:09:33;;;;;;;9.38;6.13;;;;;;;3.95;70.40;99021.41;4997677;28;20095;-44
2022/04/01 02:11:59;;;;;;;8.50;6.05;;;;;;;3.94;70.25;99016.25;5000552;28;20046;-44
2022/04/01 02:14:25;;;;;;;9.30;6.13;;;;;;;3.87;69.95;99009.56;5041762;28;20056;-43
2022/04/01 02:16:51;;;;;;;9.70;6.45;;;;;;;3.95;69.88;99023.13;5031028;28;20045;-42
2022/04/01 02:19:21;;;;;;;8.70;6.38;;;;;;;3.93;70.09;99022.28;5030107;28;20041;-43
2022/04/01 02:21:51;;;;;;;8.57;6.15;;;;;;;3.90;70.13;99033.47;5018873;28;20045;-43
2022/04/01 02:24:23;;;;;;;10.60;5.93;;;;;;;3.89;70.35;99024.06;5029283;28;20566;-44
2022/04/01 02:26:51;;;;;;;9.98;6.07;;;;;;;3.88;70.02;99018.94;5027410;28;20084;-43
2022/04/01 02:29:19;;;;;;;10.00;6.25;;;;;;;3.88;70.28;99026.66;5034765;28;20033;-43
2022/04/01 02:32:12;;;;;;;9.63;6.18;;;;;;;3.88;69.99;99026.66;5017099;28;20062;-43
2022/04/01 02:34:50;;;;;;;10.25;6.55;;;;;;;3.86;69.58;99028.44;5027874;28;20049;-43
2022/04/01 02:37:19;;;;;;;10.52;5.60;;;;;;;3.88;69.80;99031.81;5027008;28;20746;-44
2022/04/01 02:39:45;;;;;;;8.55;5.20;;;;;;;3.85;69.52;99035.28;5029218;28;20527;-42
2022/04/01 02:42:11;;;;;;;11.00;5.97;;;;;;;3.84;69.36;99031.03;5025449;28;20045;-43
2022/04/01 02:44:37;;;;;;;8.75;5.82;;;;;;;3.86;69.79;99033.56;5028164;28;20110;-43
2022/04/01 02:47:03;;;;;;;9.27;5.88;;;;;;;3.72;69.99;99008.94;5020343;28;20444;-42
2022/04/01 02:49:29;;;;;;;10.23;6.20;;;;;;;3.83;69.49;99029.31;5046102;28;20513;-44
2022/04/01 02:52:00;;;;;;;9.43;6.38;;;;;;;3.84;69.58;99034.44;5028178;28;20047;-43
2022/04/01 02:54:26;;;;;;;9.23;6.03;;;;;;;3.76;69.80;99023.47;5029448;28;20120;-43
2022/04/01 02:56:55;;;;;;;9.25;5.93;;;;;;;3.80;69.45;99030.22;4983232;28;20533;-43
2022/04/01 02:59:21;;;;;;;11.18;6.40;;;;;;;3.79;69.59;99041.38;5011198;28;20145;-43
2022/04/01 03:01:46;;;;;;;10.95;6.28;;;;;;;3.79;69.64;99028.53;5059827;28;20047;-42
2022/04/01 03:04:12;;;;;;;9.63;6.05;;;;;;;3.69;69.77;99021.84;5029590;28;20187;-44
2022/04/01 03:06:51;;;;;;;11.27;6.20;;;;;;;3.79;69.60;99043.09;5029274;28;20057;-43
2022/04/01 03:09:17;;;;;;;9.75;6.00;;;;;;;3.81;69.78;99049.09;5028952;28;20125;-43
2022/04/01 03:11:52;;;;;;;11.13;6.32;;;;;;;3.81;69.75;99049.09;5061706;28;20041;-42
2022/04/01 03:14:43;;;;;;;9.75;5.97;;;;;;;3.80;69.45;99048.22;5031939;28;20140;-44
2022/04/01 03:17:35;;;;;;;9.00;4.90;;;;;;;3.78;69.22;99055.09;5017799;28;20545;-44
2022/04/01 03:20:14;;;;;;;8.85;5.05;;;;;;;3.76;69.19;99056.88;5056216;28;20049;-44
2022/04/01 03:22:42;;;;;;;8.43;5.68;;;;;;;3.79;69.22;99059.38;5033339;28;20041;-44
2022/04/01 03:25:14;;;;;;;8.38;5.07;;;;;;;3.79;68.95;99053.38;5033107;28;20034;-44
2022/04/01 03:28:02;;;;;;;8.35;5.30;;;;;;;3.58;69.50;99025.47;5024099;28;20053;-44
2022/04/01 03:30:28;;;;;;;8.30;5.25;;;;;;;3.74;69.15;99056.03;5032317;28;20041;-43
2022/04/01 03:32:55;;;;;;;9.10;5.38;;;;;;;3.65;69.01;99039.94;5032290;28;20048;-44
2022/04/01 03:35:20;;;;;;;9.20;5.13;;;;;;;3.76;69.00;99051.75;5016910;28;20520;-45
2022/04/01 03:37:46;;;;;;;7.07;4.90;;;;;;;3.75;69.18;99056.91;5016012;28;20056;-43
2022/04/01 03:40:16;;;;;;;8.13;5.10;;;;;;;3.61;69.21;99041.69;5024237;28;20044;-44
2022/04/01 03:42:46;;;;;;;9.65;4.93;;;;;;;3.66;68.94;99054.50;5016872;28;20111;-43
2022/04/01 03:45:14;;;;;;;8.25;5.32;;;;;;;3.66;68.86;99054.50;5033039;28;20041;-44
2022/04/01 03:48:10;;;;;;;9.82;5.68;;;;;;;3.66;68.99;99054.50;5045290;28;20597;-43
2022/04/01 03:50:38;;;;;;;8.40;5.15;;;;;;;3.70;68.78;99054.41;5013734;28;20041;-43
2022/04/01 03:53:07;;;;;;;8.85;5.15;;;;;;;3.65;68.70;99045.94;5060885;28;20124;-43
2022/04/01 03:55:35;;;;;;;8.35;5.43;;;;;;;3.76;68.73;99058.59;5021291;28;20103;-43
2022/04/01 03:58:36;;;;;;;9.93;5.00;;;;;;;3.80;68.82;99060.22;5023259;28;20046;-43
2022/04/01 04:01:28;;;;;;;10.23;5.15;;;;;;;3.83;68.37;99057.59;5016698;28;20552;-43
2022/04/01 04:03:56;;;;;;;9.95;5.00;;;;;;;3.76;68.43;99043.16;5032375;28;20061;-44
2022/04/01 04:06:23;;;;;;;9.13;4.78;;;;;;;3.83;68.34;99063.59;5026945;28;20116;-45
2022/04/01 04:08:57;;;;;;;7.93;4.68;;;;;;;3.81;68.37;99061.94;5029657;28;20037;-43
2022/04/01 04:11:25;;;;;;;7.32;4.25;;;;;;;3.82;68.15;99063.63;5038010;28;20049;-42
2022/04/01 04:14:30;;;;;;;9.75;4.95;;;;;;;3.82;68.37;99068.78;5013228;28;20147;-45
2022/04/01 04:16:57;;;;;;;6.50;4.20;;;;;;;3.83;68.31;99062.75;5017364;28;20406;-43
2022/04/01 04:19:51;;;;;;;8.93;4.10;;;;;;;3.79;68.10;99068.81;5032493;28;20045;-43
2022/04/01 04:22:35;;;;;;;7.85;4.32;;;;;;;3.76;68.03;99069.72;5027099;28;20048;-43
2022/04/01 04:25:10;;;;;;;6.22;4.47;;;;;;;3.69;68.24;99069.84;5035772;28;20169;-44
2022/04/01 04:27:41;;;;;;;6.15;3.88;;;;;;;3.73;68.31;99079.19;5045618;28;20053;-43
2022/04/01 04:30:11;;;;;;;7.35;4.65;;;;;;;3.73;68.36;99074.91;5011535;28;20045;-44
2022/04/01 04:33:04;;;;;;;7.13;4.30;;;;;;;3.73;68.00;99072.34;5029488;28;20513;-43
2022/04/01 04:35:35;;;;;;;6.63;4.03;;;;;;;3.67;67.78;99071.59;5032472;28;21087;-44
2022/04/01 04:38:02;;;;;;;7.13;3.90;;;;;;;3.68;67.70;99083.56;5031345;28;20056;-43
2022/04/01 04:40:28;;;;;;;6.45;4.38;;;;;;;3.67;67.71;99080.13;5013907;28;20033;-44
2022/04/01 04:43:12;;;;;;;8.50;4.85;;;;;;;3.72;67.61;99091.19;5031964;28;20045;-43
2022/04/01 04:45:40;;;;;;;6.30;3.70;;;;;;;3.73;67.46;99086.91;5016136;28;20041;-44
2022/04/01 04:48:06;;;;;;;6.20;4.05;;;;;;;3.77;67.36;99091.13;5045644;28;20417;-45
2022/04/01 04:50:33;;;;;;;7.03;4.35;;;;;;;3.76;67.54;99095.44;5030314;28;20038;-44
2022/04/01 04:53:00;;;;;;;5.38;3.47;;;;;;;3.76;67.55;99095.44;5047162;28;20052;-44
2022/04/01 04:55:26;;;;;;;5.72;3.72;;;;;;;3.82;67.26;99097.06;5011901;28;20037;-44
2022/04/01 04:58:04;;;;;;;8.00;4.13;;;;;;;3.86;67.06;99100.41;5013921;28;20563;-44
2022/04/01 05:00:30;;;;;;;6.03;3.70;;;;;;;3.89;66.72;99103.78;5013871;28;20049;-43
2022/04/01 05:03:11;;;;;;;7.57;4.35;;;;;;;3.88;66.78;99104.66;5044104;28;20137;-45
2022/04/01 05:05:44;;;;;;;9.02;4.60;;;;;;;3.88;66.54;99107.22;5044867;28;20042;-44
2022/04/01 05:08:52;;;;;;;5.35;3.88;;;;;;;3.92;66.31;99106.31;5045880;28;20071;-42
2022/04/01 05:11:42;;;;;;;6.32;4.10;;;;;;;3.94;66.23;99104.53;5005410;28;20037;-44
2022/04/01 05:14:11;;;;;;;5.38;3.78;;;;;;;3.98;66.38;99108.75;5024467;28;20047;-43
2022/04/01 05:16:44;;;;;;;5.80;3.65;;;;;;;3.95;66.19;99098.53;5030000;28;20087;-45
2022/04/01 05:19:12;;;;;;;5.97;4.43;;;;;;;3.96;65.72;99102.81;5030782;28;20505;-44
2022/04/01 05:22:02;;;;;;;7.60;4.32;;;;;;;4.09;66.24;99113.72;5013546;28;20079;-46
2022/04/01 05:24:38;;;;;;;6.90;3.92;;;;;;;3.99;65.81;99117.31;5028193;28;20037;-44
2022/04/01 05:27:07;;;;;;;6.18;3.85;;;;;;;3.84;65.34;99103.00;5010556;28;20033;-45
2022/04/01 05:30:12;;;;;;;4.65;3.35;;;;;;;3.94;65.68;99111.41;5016881;28;20045;-43
2022/04/01 05:32:41;;;;;;;7.78;4.35;;;;;;;3.98;65.59;99115.66;5025409;28;20045;-44
2022/04/01 05:35:08;;;;;;;5.55;3.83;;;;;;;4.03;65.25;99119.81;5022012;28;20152;-43
2022/04/01 05:37:35;;;;;;;4.97;3.42;;;;;;;4.04;65.28;99118.94;5026909;28;20120;-44
2022/04/01 05:40:07;;;;;;;5.10;3.72;;;;;;;3.89;64.51;99090.91;5030859;28;20042;-46
2022/04/01 05:42:37;;;;;;;5.25;3.28;;;;;;;4.07;64.26;99116.34;5012893;28;20079;-49
2022/04/01 05:45:21;;;;;;;7.43;4.18;;;;;;;4.08;63.94;99110.28;5024958;28;20052;-47
2022/04/01 05:47:47;;;;;;;8.48;3.47;;;;;;;3.99;63.86;99097.59;5011072;28;20049;-44
2022/04/01 05:50:14;;;;;;;5.68;3.38;;;;;;;4.05;63.77;99112.09;5037554;28;20132;-44
2022/04/01 05:52:40;;;;;;;5.72;3.67;;;;;;;4.08;63.64;99112.03;5030067;28;20044;-46
2022/04/01 05:55:07;;;;;;;5.20;3.63;;;;;;;3.95;63.75;99079.69;5011374;28;20048;-47
2022/04/01 05:57:34;;;;;;;6.00;3.80;;;;;;;4.18;63.65;99113.56;5029675;28;20041;-46
2022/04/01 06:00:05;;;;;;;9.95;4.10;;;;;;;4.21;63.72;99114.38;5028438;28;20477;-47
2022/04/01 06:03:02;;;;;;;6.65;3.72;;;;;;;4.24;63.49;99119.44;5029958;28;20148;-48
2022/04/01 06:05:37;;;;;;;7.68;3.55;;;;;;;4.23;63.23;99094.63;5030040;28;20052;-46
2022/04/01 06:08:23;;;;;;;5.40;3.90;;;;;;;4.38;62.90;99102.91;5040926;28;20056;-44
2022/04/01 06:11:01;;;;;;;5.38;3.53;;;;;;;4.32;62.62;99115.88;5032938;28;20037;-49
2022/04/01 06:14:05;;;;;;;7.85;4.20;;;;;;;4.29;62.68;99129.69;5038720;28;20098;-50
2022/04/01 06:17:17;;;;;;;6.25;3.90;;;;;;;4.31;62.72;99127.91;5039804;28;20041;-49
2022/04/01 06:19:44;;;;;;;5.97;3.85;;;;;;;4.18;62.36;99106.72;5019837;28;20050;-53
2022/04/01 06:22:20;;;;;;;5.32;3.60;;;;;;;4.27;62.20;99121.13;5015679;28;20055;-51
2022/04/01 06:25:17;;;;;;;8.10;4.70;;;;;;;4.25;62.56;99117.72;5047881;28;20092;-53
2022/04/01 06:28:19;;;;;;;6.38;4.18;;;;;;;4.30;62.28;99131.34;5011298;28;20061;-48
2022/04/01 06:30:46;;;;;;;5.80;4.18;;;;;;;4.23;62.17;99115.19;5010842;28;20430;-47
2022/04/01 06:33:33;;;;;;;6.75;4.55;;;;;;;4.35;62.35;99126.97;5040080;28;20044;-47
2022/04/01 06:36:30;;;;;;;15.40;5.07;;;;;;;4.42;61.86;99138.00;5030064;28;20038;-45
2022/04/01 06:39:06;;;;;;;6.40;4.05;;;;;;;4.48;61.69;99122.44;5022866;28;20053;-45
2022/04/01 06:41:43;;;;;;;5.43;4.10;;;;;;;4.59;61.63;99125.69;5012843;28;20037;-46
2022/04/01 06:44:32;;;;;;;6.50;4.22;;;;;;;4.64;60.95;99105.84;5024161;28;20053;-45
2022/04/01 06:47:36;;;;;;;5.95;4.20;;;;;;;5.02;60.91;99125.66;5040364;28;20041;-45
2022/04/01 06:50:04;;;;;;;5.57;4.00;;;;;;;5.08;60.06;99125.50;5062165;28;20116;-44
2022/04/01 06:52:48;;;;;;;7.95;3.38;;;;;;;4.94;60.02;99109.50;5011517;28;20048;-51
2022/04/01 06:55:32;;;;;;;4.88;3.10;;;;;;;4.94;60.06;99122.38;5030724;28;20122;-45
2022/04/01 06:58:01;;;;;;;;;;;;;;;4.88;60.23;99123.34;5019464;28;20038;-42
2022/04/01 07:00:42;;;;;;;5.30;3.58;;;;;;;4.84;60.28;99126.03;5015928;28;19928;-44
2022/04/01 07:03:09;;;;;;;5.20;3.55;;;;;;;4.86;59.82;99119.13;5019627;28;20861;-45
2022/04/01 07:05:36;;;;;;;7.45;3.80;;;;;;;4.99;60.10;99110.25;5029113;28;20516;-42
2022/04/01 07:08:02;;;;;;;5.38;3.42;;;;;;;5.24;59.80;99124.31;5028544;28;20128;-40
2022/04/01 07:10:28;;;;;;;5.35;3.85;;;;;;;5.35;59.34;99106.03;5028782;28;20042;-42
2022/04/01 07:12:54;;;;;;;6.65;4.00;;;;;;;5.57;58.89;99108.97;5025731;28;20064;-41
2022/04/01 07:15:20;;;;;;;5.07;3.50;;;;;;;5.62;58.39;99112.28;5033043;28;20069;-42
2022/04/01 07:17:46;;;;;;;8.05;4.13;;;;;;;5.59;58.02;99112.38;5018380;28;20060;-42
2022/04/01 07:20:13;;;;;;;8.07;4.15;;;;;;;5.60;58.59;99114.06;5028188;28;20073;-42
2022/04/01 07:22:40;;;;;;;5.13;3.40;;;;;;;5.54;58.48;99110.75;5028463;28;20429;-41
2022/04/01 07:25:07;;;;;;;7.85;3.70;;;;;;;5.57;58.67;99111.53;5028249;28;20044;-42
2022/04/01 07:27:34;;;;;;;4.95;3.50;;;;;;;5.60;58.51;99098.59;5028121;28;20060;-42
2022/04/01 07:30:00;;;;;;;5.25;3.60;;;;;;;5.63;57.85;99106.25;5010435;28;20034;-41
2022/04/01 07:32:32;;;;;;;7.43;4.35;;;;;;;5.65;58.16;99107.91;5030711;28;20037;-42
2022/04/01 07:35:10;;;;;;;6.22;3.78;;;;;;;5.75;57.99;99122.28;5010763;28;20126;-41
2022/04/01 07:37:36;;;;;;;6.03;4.28;;;;;;;5.78;57.83;99118.78;5032385;28;20113;-41
2022/04/01 07:40:13;;;;;;;7.50;3.92;;;;;;;5.85;57.09;99120.34;5009316;28;20608;-41
2022/04/01 07:42:42;;;;;;;4.63;3.75;;;;;;;5.85;57.26;99126.34;5026159;28;20524;-42
2022/04/01 07:45:09;;;;;;;8.15;3.83;;;;;;;5.92;56.68;99112.41;5010353;28;20041;-42
2022/04/01 07:47:35;;;;;;;5.20;3.75;;;;;;;6.09;56.34;99126.63;5009991;28;20052;-41
2022/04/01 07:50:03;;;;;;;5.95;3.45;;;;;;;6.23;56.63;99124.53;5026934;28;20041;-42
2022/04/01 07:52:29;;;;;;;6.47;3.72;;;;;;;6.30;55.97;99132.09;5029867;28;20041;-41
2022/04/01 07:54:55;;;;;;;5.78;3.85;;;;;;;6.26;55.57;99096.94;5024139;28;20049;-42
2022/04/01 07:57:21;;;;;;;5.03;3.50;;;;;;;6.40;55.34;99109.47;5030338;28;20041;-42
2022/04/01 07:59:47;;;;;;;6.00;4.10;;;;;;;6.53;55.22;99125.50;5029103;28;20580;-41
2022/04/01 08:02:14;;;;;;;5.95;3.65;;;;;;;6.54;54.97;99120.25;5033809;28;20041;-41
2022/04/01 08:04:40;;;;;;;6.43;3.90;;;;;;;6.52;55.02;99123.78;5017370;28;20144;-41
2022/04/01 08:07:06;;;;;;;4.50;2.90;;;;;;;6.54;54.36;99128.00;5014001;28;20508;-40
2022/04/01 08:09:33;;;;;;;6.53;3.60;;;;;;;6.43;54.98;99131.78;5013750;28;20510;-43
2022/04/01 08:12:01;;;;;;;6.13;3.67;;;;;;;6.28;54.84;99133.03;5022948;28;20042;-42
2022/04/01 08:14:27;;;;;;;5.00;3.47;;;;;;;6.11;54.75;99130.03;5030480;28;20472;-41
2022/04/01 08:16:53;;;;;;;6.78;3.53;;;;;;;5.93;55.06;99111.53;5031981;28;20500;-40
2022/04/01 08:19:19;;;;;;;5.10;3.75;;;;;;;5.97;55.24;99120.03;5020950;28;20042;-42
2022/04/01 08:21:45;;;;;;;5.32;3.17;;;;;;;5.84;54.82;99124.63;5028757;28;20072;-41
2022/04/01 08:24:12;;;;;;;5.18;3.00;;;;;;;5.72;55.41;99109.44;5014780;28;20501;-42
2022/04/01 08:26:39;;;;;;;6.18;3.38;;;;;;;5.73;54.86;99124.03;5013460;28;20038;-42
2022/04/01 08:29:05;;;;;;;5.22;3.20;;;;;;;5.66;55.14;99116.47;5022798;28;20041;-41
2022/04/01 08:31:33;;;;;;;6.07;3.47;;;;;;;5.77;55.68;99122.22;5032118;28;20051;-43
2022/04/01 08:33:59;;;;;;;6.57;3.63;;;;;;;5.83;55.14;99129.81;5023812;28;20505;-42
2022/04/01 08:36:26;;;;;;;5.20;3.80;;;;;;;6.02;55.37;99127.69;5033509;28;20087;-42
2022/04/01 08:38:52;;;;;;;4.50;3.40;;;;;;;7.20;53.07;99117.53;5023859;28;20060;-42
2022/04/01 08:41:20;;;;;;;6.60;3.20;;;;;;;8.68;49.71;99116.13;5024993;28;21498;-42
2022/04/01 08:43:48;;;;;;;5.88;3.83;;;;;;;9.07;47.88;99123.34;5031285;28;20041;-42
2022/04/01 08:46:15;;;;;;;5.55;3.30;;;;;;;8.82;48.61;99120.81;5033129;28;20072;-42
2022/04/01 08:48:42;;;;;;;5.85;3.20;;;;;;;8.41;49.39;99127.44;5027041;28;20042;-42
2022/04/01 08:51:07;;;;;;;7.03;4.13;;;;;;;8.00;49.72;99132.25;5013159;28;20092;-42
2022/04/01 08:53:38;;;;;;;4.68;2.90;;;;;;;7.66;50.10;99129.88;5012914;28;20453;-41
2022/04/01 08:56:04;;;;;;;4.30;2.95;;;;;;;7.36;50.30;99130.84;5021324;28;20044;-40
2022/04/01 08:58:30;;;;;;;4.70;3.05;;;;;;;7.11;50.40;99129.88;5032191;28;20064;-40
2022/04/01 09:00:58;;;;;;;5.07;3.40;;;;;;;6.98;51.06;99120.75;5031594;28;20509;-43
2022/04/01 09:03:24;;;;;;;5.22;3.17;;;;;;;6.84;51.39;99125.50;5025885;28;20049;-41
2022/04/01 09:05:57;;;;;;;5.47;3.35;;;;;;;6.76;51.11;99117.94;5048025;28;20527;-41
2022/04/01 09:08:24;;;;;;;4.20;3.30;;;;;;;6.78;51.27;99123.91;5030456;28;20128;-41
2022/04/01 09:10:57;;;;;;;4.22;3.20;;;;;;;6.79;51.50;99129.06;5013036;28;20152;-42
2022/04/01 09:13:26;;;;;;;5.18;3.35;;;;;;;6.81;51.31;99126.41;5013451;28;20456;-42
2022/04/01 09:15:52;;;;;;;9.90;4.77;;;;;;;6.71;51.26;99119.81;5012531;28;20041;-42
2022/04/01 09:18:34;;;;;;;6.10;4.35;;;;;;;6.75;51.14;99132.59;5013618;28;20768;-42
2022/04/01 09:21:00;;;;;;;5.00;3.30;;;;;;;6.75;51.53;99134.34;5032552;28;20047;-42
2022/04/01 09:23:25;;;;;;;5.38;3.78;;;;;;;6.79;50.93;99134.22;5026453;28;20453;-42
2022/04/01 09:25:52;;;;;;;5.05;3.45;;;;;;;6.92;50.83;99141.59;5021851;28;20041;-43
2022/04/01 09:28:29;;;;;;;4.20;2.80;;;;;;;6.95;50.32;99134.63;5030871;28;20473;-43
2022/04/01 09:31:09;;;;;;;4.95;2.83;;;;;;;7.13;50.07;99144.44;5012470;28;20049;-42
2022/04/01 09:33:50;;;;;;;5.43;3.47;;;;;;;7.22;49.89;99135.59;5012941;28;20517;-43
2022/04/01 09:36:17;;;;;;;5.40;3.90;;;;;;;7.38;49.55;99151.50;5012150;28;20037;-42
2022/04/01 09:39:20;;;;;;;6.32;4.10;;;;;;;7.54;49.93;99143.19;5031564;28;20047;-42
2022/04/01 09:41:48;;;;;;;5.90;3.30;;;;;;;7.83;49.13;99129.34;5031402;28;20045;-43
2022/04/01 09:44:17;;;;;;;5.30;3.33;;;;;;;8.15;48.27;99107.59;5024208;28;20041;-43
2022/04/01 09:46:47;;;;;;;4.93;3.17;;;;;;;8.50;47.40;99091.72;5012552;28;20417;-41
2022/04/01 09:49:29;;;;;;;3.78;3.08;;;;;;;9.06;46.52;99124.22;5019770;28;20064;-42
2022/04/01 09:51:55;;;;;;;5.78;3.38;;;;;;;9.50;45.37;99109.59;5031099;28;20593;-42
2022/04/01 09:54:23;;;;;;;5.38;2.95;;;;;;;9.59;44.81;99112.66;5005282;28;20085;-45
2022/04/01 09:56:54;;;;;;;4.10;3.15;;;;;;;9.46;45.53;99115.81;5027833;28;20481;-44
2022/04/01 09:59:21;;;;;;;5.30;3.85;;;;;;;9.11;45.57;99119.72;5023110;28;20042;-42
2022/04/01 10:01:48;;;;;;;8.80;4.95;;;;;;;8.97;45.60;99109.03;5011631;28;20053;-42
2022/04/01 10:04:14;;;;;;;9.90;5.95;;;;;;;8.97;45.79;99106.44;5012749;28;20471;-42
2022/04/01 10:06:41;;;;;;;28.10;13.43;;;;;;;9.12;45.25;99103.25;5043739;28;20052;-43
2022/04/01 10:09:11;;;;;;;92.90;42.13;;;;;;;9.26;45.00;99096.63;5033301;28;20037;-43
2022/04/01 10:11:39;;;;;;;71.80;35.40;;;;;;;9.84;44.13;99098.72;5031555;28;20045;-43
2022/04/01 10:14:20;;;;;;;44.95;23.92;;;;;;;10.13;43.23;99087.97;5028189;28;20045;-42
2022/04/01 10:16:48;;;;;;;17.98;11.80;;;;;;;10.15;43.22;99089.56;5011572;28;20049;-42
2022/04/01 10:19:21;;;;;;;9.00;5.45;;;;;;;9.98;43.39;99098.97;5016397;28;20131;-42
2022/04/01 10:21:47;;;;;;;8.73;6.45;;;;;;;9.80;43.77;99103.16;5062318;28;20052;-42
2022/04/01 10:24:45;;;;;;;10.20;5.72;;;;;;;9.45;43.39;99096.78;5028391;28;20138;-41
2022/04/01 10:27:30;;;;;;;30.75;20.80;;;;;;;9.43;44.09;99084.78;5013223;28;20120;-42
2022/04/01 10:29:56;;;;;;;32.90;20.17;;;;;;;9.61;43.51;99076.28;5018499;28;20060;-42
2022/04/01 10:32:38;;;;;;;27.05;16.35;;;;;;;9.76;43.42;99081.69;5011197;28;20053;-43
2022/04/01 10:35:07;;;;;;;20.30;13.65;;;;;;;9.73;43.23;99068.00;5020344;28;20128;-43
2022/04/01 10:37:34;;;;;;;19.27;11.18;;;;;;;10.00;42.83;99074.63;5018607;28;20502;-42
2022/04/01 10:40:16;;;;;;;19.48;10.82;;;;;;;10.18;42.23;99079.09;5021376;28;20450;-45
2022/04/01 10:42:42;;;;;;;14.77;7.90;;;;;;;10.35;42.19;99072.34;5029768;28;20593;-42
2022/04/01 10:45:17;;;;;;;13.05;8.57;;;;;;;10.91;40.99;99062.03;5028861;28;20052;-42
2022/04/01 10:53:33;;;;;;;27.63;13.20;;;;;;;11.75;39.63;99049.34;5010971;28;20095;-42
2022/04/01 10:56:32;;;;;;;14.60;8.75;;;;;;;13.24;37.12;99051.94;5015707;28;20030;-42
2022/04/01 10:59:26;;;;;;;20.70;6.07;;;;;;;14.65;34.90;99051.56;5027309;28;20132;-42
2022/04/01 11:01:52;;;;;;;10.18;6.10;;;;;;;15.26;34.68;99047.75;5014584;28;20041;-44
2022/04/01 11:04:18;;;;;;;7.63;5.80;;;;;;;15.43;34.33;99039.66;5011977;28;20049;-42
2022/04/01 11:07:06;;;;;;;10.05;5.70;;;;;;;15.71;33.08;99035.25;5030756;28;20420;-43
2022/04/01 11:09:49;;;;;;;8.02;4.80;;;;;;;15.43;32.94;99033.56;5030379;28;20064;-43
2022/04/01 11:12:14;;;;;;;7.55;4.07;;;;;;;15.75;32.41;99031.50;5030624;28;20069;-43
2022/04/01 11:15:11;;;;;;;6.43;3.20;;;;;;;15.72;32.12;99031.69;5029491;28;20080;-43
2022/04/01 11:17:37;;;;;;;5.20;3.40;;;;;;;16.10;31.02;99019.50;5028722;28;20042;-42
2022/04/01 11:20:07;;;;;;;6.22;4.03;;;;;;;16.52;30.59;99018.38;5030246;28;20099;-43
2022/04/01 11:23:00;;;;;;;6.70;4.18;;;;;;;16.85;30.26;99010.78;5013549;28;20052;-43
2022/04/01 11:25:31;;;;;;;8.82;4.43;;;;;;;17.24;30.11;99014.13;5015630;28;20033;-42
2022/04/01 11:27:57;;;;;;;8.23;4.65;;;;;;;17.12;30.05;98999.25;5010646;28;20128;-43
2022/04/01 11:30:25;;;;;;;4.20;3.70;;;;;;;16.53;30.13;98999.06;5025785;28;20529;-42
2022/04/01 11:32:55;;;;;;;6.47;4.25;;;;;;;15.77;30.48;98992.91;5056934;28;20092;-43
2022/04/01 11:35:22;;;;;;;4.82;3.70;;;;;;;15.18;30.94;98982.75;5010321;28;20103;-43
2022/04/01 11:37:49;;;;;;;9.07;4.32;;;;;;;15.24;30.64;98992.00;5029596;28;20520;-43
2022/04/01 11:40:22;;;;;;;9.02;5.43;;;;;;;16.05;30.00;98982.28;5041859;28;20048;-45
2022/04/01 11:42:54;;;;;;;9.82;7.68;;;;;;;16.81;29.25;98980.44;5021067;28;20045;-43
2022/04/01 11:45:20;;;;;;;6.80;4.95;;;;;;;17.02;29.08;98962.31;5029563;28;20053;-44
2022/04/01 11:47:46;;;;;;;6.93;4.80;;;;;;;17.64;28.66;98970.88;5029241;28;20608;-43
2022/04/01 11:50:17;;;;;;;8.23;4.85;;;;;;;17.99;28.07;98970.03;5025207;28;20152;-43
2022/04/01 11:52:45;;;;;;;9.50;5.07;;;;;;;18.30;27.32;98950.09;5034182;28;20041;-42
2022/04/01 11:55:16;;;;;;;7.75;5.30;;;;;;;18.31;27.12;98947.34;5030358;28;20482;-43
2022/04/01 11:57:42;;;;;;;9.50;5.65;;;;;;;18.20;27.08;98952.59;5017933;28;20095;-44
2022/04/01 12:00:19;;;;;;;8.27;4.90;;;;;;;17.62;27.26;98956.19;5014461;28;20034;-42
2022/04/01 12:02:46;;;;;;;11.38;6.13;;;;;;;16.77;27.66;98934.34;5014057;28;20430;-42
2022/04/01 12:05:13;;;;;;;8.18;5.10;;;;;;;16.55;27.32;98923.66;5019664;28;20045;-43
2022/04/01 12:10:26;;;;;;;5.30;4.20;;;;;;;16.79;27.36;98937.72;5028261;28;20131;-42
2022/04/01 12:12:53;;;;;;;6.13;4.35;;;;;;;16.87;27.32;98937.16;5033736;28;20041;-43